createdAt,value
2018-05-18T00:01:04.302Z,52.20
2018-05-18T00:03:08.274Z,52.20
2018-05-18T00:05:11.471Z,52.20
2018-05-18T00:07:14.704Z,52.20
2018-05-18T00:09:17.934Z,52.30
2018-05-18T00:11:21.181Z,52.30
2018-05-18T00:13:24.411Z,52.30
2018-05-18T00:15:27.621Z,52.10
2018-05-18T00:17:32.072Z,52.60
2018-05-18T00:19:35.265Z,52.10
2018-05-18T00:21:38.490Z,52.00
2018-05-18T00:23:41.676Z,52.00
2018-05-18T00:25:45.019Z,52.00
2018-05-18T00:27:55.230Z,52.10
2018-05-18T00:29:59.189Z,52.10
2018-05-18T00:32:03.507Z,52.10
2018-05-18T00:34:06.726Z,52.10
2018-05-18T00:36:09.932Z,52.20
2018-05-18T00:38:14.144Z,52.20
2018-05-18T00:40:17.504Z,52.40
2018-05-18T00:42:20.721Z,52.50
2018-05-18T00:44:23.920Z,52.50
2018-05-18T00:46:28.249Z,52.40
2018-05-18T00:48:32.602Z,52.30
2018-05-18T00:50:35.786Z,52.20
2018-05-18T00:52:39.076Z,52.20
2018-05-18T00:54:42.200Z,52.20
2018-05-18T00:56:45.390Z,52.40
2018-05-18T00:58:49.362Z,52.40
2018-05-18T01:00:53.556Z,52.30
2018-05-18T01:02:58.172Z,52.30
2018-05-18T01:05:02.216Z,52.40
2018-05-18T01:07:06.775Z,52.20
2018-05-18T01:09:11.177Z,52.10
2018-05-18T01:11:15.889Z,52.20
2018-05-18T01:13:21.087Z,52.30
2018-05-18T01:15:25.339Z,52.30
2018-05-18T01:17:29.750Z,52.30
2018-05-18T01:19:34.338Z,52.30
2018-05-18T01:21:39.542Z,52.40
2018-05-18T01:23:44.092Z,52.40
2018-05-18T01:25:48.467Z,52.40
2018-05-18T01:27:55.329Z,52.40
2018-05-18T01:29:59.678Z,52.30
2018-05-18T01:32:03.783Z,52.40
2018-05-18T01:34:08.360Z,52.60
2018-05-18T01:36:14.282Z,52.60
2018-05-18T01:38:19.080Z,52.60
2018-05-18T01:40:23.938Z,52.70
2018-05-18T01:42:28.373Z,52.70
2018-05-18T01:44:33.599Z,52.80
2018-05-18T01:46:38.183Z,52.70
2018-05-18T01:48:43.359Z,52.70
2018-05-18T01:50:47.693Z,52.60
2018-05-18T01:52:50.813Z,52.50
2018-05-18T01:54:55.295Z,52.50
2018-05-18T01:57:00.454Z,52.50
2018-05-18T01:59:11.830Z,52.80
2018-05-18T02:01:16.279Z,52.70
2018-05-18T02:03:20.811Z,52.70
2018-05-18T02:05:25.157Z,52.70
2018-05-18T02:07:29.460Z,52.70
2018-05-18T02:09:33.815Z,52.90
2018-05-18T02:11:38.643Z,53.00
2018-05-18T02:13:43.196Z,53.10
2018-05-18T02:15:47.510Z,53.00
2018-05-18T02:17:51.951Z,52.80
2018-05-18T02:19:56.132Z,52.70
2018-05-18T02:22:00.556Z,52.70
2018-05-18T02:24:04.189Z,52.60
2018-05-18T02:26:07.420Z,52.70
2018-05-18T02:28:11.399Z,52.70
2018-05-18T02:30:14.606Z,52.70
2018-05-18T02:32:17.786Z,52.60
2018-05-18T02:34:21.006Z,52.70
2018-05-18T02:36:24.182Z,52.60
2018-05-18T02:38:28.167Z,52.70
2018-05-18T02:40:31.357Z,52.70
2018-05-18T02:42:34.543Z,52.70
2018-05-18T02:44:37.749Z,52.90
2018-05-18T02:46:40.923Z,52.90
2018-05-18T02:48:44.131Z,52.80
2018-05-18T02:50:47.310Z,53.40
2018-05-18T02:52:50.486Z,53.20
2018-05-18T02:54:55.111Z,53.30
2018-05-18T02:56:59.053Z,53.20
2018-05-18T02:59:02.289Z,53.20
2018-05-18T03:01:06.244Z,53.40
2018-05-18T03:03:09.426Z,53.30
2018-05-18T03:05:13.944Z,53.40
2018-05-18T03:07:17.124Z,53.40
2018-05-18T03:09:21.095Z,53.40
2018-05-18T03:11:24.275Z,53.30
2018-05-18T03:13:27.461Z,53.30
2018-05-18T03:15:31.433Z,53.40
2018-05-18T03:17:34.637Z,53.40
2018-05-18T03:19:37.847Z,53.40
2018-05-18T03:21:41.020Z,53.50
2018-05-18T03:23:44.996Z,53.80
2018-05-18T03:25:48.182Z,53.80
2018-05-18T03:27:53.256Z,54.00
2018-05-18T03:29:56.469Z,54.00
2018-05-18T03:31:59.649Z,53.90
2018-05-18T03:34:02.857Z,53.80
2018-05-18T03:36:06.077Z,53.60
2018-05-18T03:38:09.258Z,53.60
2018-05-18T03:40:14.404Z,53.40
2018-05-18T03:42:19.294Z,53.30
2018-05-18T03:44:22.651Z,53.20
2018-05-18T03:46:26.594Z,54.20
2018-05-18T03:48:30.557Z,53.60
2018-05-18T03:50:33.769Z,53.50
2018-05-18T03:52:36.955Z,53.50
2018-05-18T03:54:40.164Z,53.60
2018-05-18T03:56:44.374Z,53.70
2018-05-18T03:58:48.441Z,53.70
2018-05-18T04:00:52.786Z,53.70
2018-05-18T04:02:56.968Z,53.70
2018-05-18T04:05:01.920Z,53.70
2018-05-18T04:07:06.061Z,54.00
2018-05-18T04:09:10.370Z,53.90
2018-05-18T04:11:15.759Z,54.20
2018-05-18T04:13:19.870Z,54.20
2018-05-18T04:15:24.501Z,54.10
2018-05-18T04:17:29.499Z,53.80
2018-05-18T04:19:35.676Z,54.40
2018-05-18T04:21:40.625Z,53.70
2018-05-18T04:23:44.633Z,54.20
2018-05-18T04:25:47.833Z,54.80
2018-05-18T04:27:51.041Z,54.20
2018-05-18T04:29:54.259Z,54.20
2018-05-18T04:31:57.442Z,54.10
2018-05-18T04:34:01.425Z,54.50
2018-05-18T04:36:04.640Z,54.50
2018-05-18T04:38:07.825Z,54.60
2018-05-18T04:40:11.041Z,54.60
2018-05-18T04:42:14.217Z,54.40
2018-05-18T04:44:18.154Z,54.00
2018-05-18T04:46:21.370Z,53.90
2018-05-18T04:48:24.587Z,54.00
2018-05-18T04:50:27.787Z,53.90
2018-05-18T04:52:30.966Z,53.80
2018-05-18T04:54:35.089Z,53.90
2018-05-18T04:56:39.685Z,54.00
2018-05-18T04:58:42.891Z,54.10
2018-05-18T05:00:46.093Z,54.10
2018-05-18T05:02:49.278Z,54.10
2018-05-18T05:04:52.709Z,54.10
2018-05-18T05:06:55.892Z,54.10
2018-05-18T05:08:59.861Z,54.20
2018-05-18T05:11:03.069Z,54.20
2018-05-18T05:13:06.280Z,54.30
2018-05-18T05:15:09.462Z,54.20
2018-05-18T05:17:12.662Z,54.20
2018-05-18T05:19:15.837Z,54.00
2018-05-18T05:21:19.038Z,53.80
2018-05-18T05:23:22.278Z,53.80
2018-05-18T05:25:26.246Z,53.80
2018-05-18T05:27:29.431Z,53.70
2018-05-18T05:29:32.638Z,53.80
2018-05-18T05:31:35.855Z,53.80
2018-05-18T05:33:39.054Z,53.80
2018-05-18T05:35:42.258Z,53.90
2018-05-18T05:37:45.430Z,54.00
2018-05-18T05:39:48.757Z,54.10
2018-05-18T05:41:52.729Z,54.40
2018-05-18T05:43:55.913Z,54.00
2018-05-18T05:45:59.123Z,54.10
2018-05-18T05:48:02.317Z,54.20
2018-05-18T05:50:06.262Z,54.20
2018-05-18T05:52:09.465Z,54.10
2018-05-18T05:54:12.659Z,54.10
2018-05-18T05:56:16.629Z,54.20
2018-05-18T05:58:19.857Z,54.10
2018-05-18T06:00:23.017Z,54.00
2018-05-18T06:02:26.730Z,54.10
2018-05-18T06:04:30.714Z,54.00
2018-05-18T06:06:35.055Z,54.00
2018-05-18T06:08:38.241Z,54.10
2018-05-18T06:10:41.423Z,54.00
2018-05-18T06:12:44.639Z,53.70
2018-05-18T06:14:47.823Z,53.60
2018-05-18T06:16:51.807Z,53.60
2018-05-18T06:18:55.131Z,53.50
2018-05-18T06:20:58.353Z,53.50
2018-05-18T06:23:01.534Z,53.40
2018-05-18T06:25:04.741Z,53.30
2018-05-18T06:27:08.001Z,53.70
2018-05-18T06:29:11.965Z,53.70
2018-05-18T06:31:16.108Z,53.70
2018-05-18T06:33:20.209Z,53.70
2018-05-18T06:35:23.537Z,53.80
2018-05-18T06:37:26.747Z,54.00
2018-05-18T06:39:29.933Z,54.10
2018-05-18T06:41:33.154Z,54.10
2018-05-18T06:43:36.343Z,53.90
2018-05-18T06:45:39.530Z,53.90
2018-05-18T06:47:43.552Z,54.20
2018-05-18T06:49:47.509Z,54.70
2018-05-18T06:51:50.738Z,53.90
2018-05-18T06:53:53.930Z,53.70
2018-05-18T06:55:57.115Z,53.60
2018-05-18T06:58:01.092Z,53.60
2018-05-18T07:00:04.294Z,53.50
2018-05-18T07:02:07.501Z,53.40
2018-05-18T07:04:10.725Z,53.40
2018-05-18T07:06:13.906Z,53.30
2018-05-18T07:08:17.125Z,53.40
2018-05-18T07:10:20.333Z,53.30
2018-05-18T07:12:23.547Z,53.10
2018-05-18T07:14:26.760Z,53.10
2018-05-18T07:16:30.021Z,53.00
2018-05-18T07:18:33.856Z,53.00
2018-05-18T07:20:37.090Z,53.10
2018-05-18T07:22:40.579Z,53.20
2018-05-18T07:24:43.808Z,53.20
2018-05-18T07:26:47.880Z,53.40
2018-05-18T07:28:52.392Z,53.30
2018-05-18T07:30:56.424Z,53.10
2018-05-18T07:33:00.712Z,53.00
2018-05-18T07:35:06.410Z,53.20
2018-05-18T07:37:11.235Z,53.80
2018-05-18T07:39:16.450Z,53.00
2018-05-18T07:41:21.213Z,52.70
2018-05-18T07:43:25.464Z,52.50
2018-05-18T07:45:28.656Z,52.30
2018-05-18T07:47:32.633Z,52.00
2018-05-18T07:49:35.810Z,51.90
2018-05-18T07:51:39.975Z,51.60
2018-05-18T07:53:43.195Z,51.50
2018-05-18T07:55:46.400Z,51.20
2018-05-18T07:57:49.608Z,51.30
2018-05-18T07:59:52.794Z,51.40
2018-05-18T08:01:55.976Z,51.20
2018-05-18T08:03:59.282Z,51.40
2018-05-18T08:06:03.257Z,51.20
2018-05-18T08:08:07.247Z,51.20
2018-05-18T08:10:10.474Z,51.00
2018-05-18T08:12:13.681Z,51.60
2018-05-18T08:14:17.973Z,51.70
2018-05-18T08:16:21.221Z,51.20
2018-05-18T08:18:25.199Z,51.10
2018-05-18T08:20:28.398Z,51.00
2018-05-18T08:22:31.713Z,50.80
2018-05-18T08:24:36.321Z,50.70
2018-05-18T08:26:40.449Z,50.20
2018-05-18T08:28:43.674Z,50.30
2018-05-18T08:30:46.853Z,50.40
2018-05-18T08:32:50.062Z,50.10
2018-05-18T08:34:53.249Z,49.80
2018-05-18T08:36:57.205Z,48.80
2018-05-18T08:39:00.414Z,48.60
2018-05-18T08:41:03.606Z,48.60
2018-05-18T08:43:06.819Z,48.40
2018-05-18T08:45:10.031Z,48.40
2018-05-18T08:47:13.219Z,49.10
2018-05-18T08:49:17.209Z,49.10
2018-05-18T08:51:20.397Z,49.00
2018-05-18T08:53:23.621Z,48.60
2018-05-18T08:55:26.837Z,48.50
2018-05-18T08:57:30.032Z,47.70
2018-05-18T08:59:33.239Z,48.20
2018-05-18T09:01:36.449Z,48.30
2018-05-18T09:03:40.775Z,47.90
2018-05-18T09:05:43.969Z,47.90
2018-05-18T09:07:47.174Z,47.50
2018-05-18T09:09:50.413Z,47.20
2018-05-18T09:11:53.643Z,46.90
2018-05-18T09:13:56.855Z,47.40
2018-05-18T09:16:00.923Z,46.90
2018-05-18T09:18:04.034Z,46.80
2018-05-18T09:20:08.456Z,46.80
2018-05-18T09:22:12.414Z,47.00
2018-05-18T09:24:15.627Z,46.90
2018-05-18T09:26:18.849Z,46.60
2018-05-18T09:28:22.052Z,46.90
2018-05-18T09:30:26.672Z,46.80
2018-05-18T09:32:29.937Z,46.70
2018-05-18T09:34:33.116Z,46.90
2018-05-18T09:36:36.335Z,47.10
2018-05-18T09:38:41.067Z,46.40
2018-05-18T09:40:44.278Z,46.30
2018-05-18T09:42:47.462Z,46.60
2018-05-18T09:44:50.691Z,46.50
2018-05-18T09:46:53.873Z,46.30
2018-05-18T09:48:57.079Z,46.10
2018-05-18T09:51:00.450Z,45.40
2018-05-18T09:53:03.641Z,45.10
2018-05-18T09:55:07.111Z,45.60
2018-05-18T09:57:10.083Z,44.90
2018-05-18T09:59:13.305Z,45.00
2018-05-18T10:01:17.272Z,44.50
2018-05-18T10:03:21.558Z,44.80
2018-05-18T10:05:25.541Z,44.30
2018-05-18T10:07:28.745Z,44.30
2018-05-18T10:09:31.953Z,43.90
2018-05-18T10:11:35.163Z,43.50
2018-05-18T10:13:38.457Z,43.30
2018-05-18T10:15:42.439Z,43.90
2018-05-18T10:17:45.643Z,43.80
2018-05-18T10:19:48.859Z,43.60
2018-05-18T10:21:52.047Z,43.10
2018-05-18T10:23:55.266Z,42.30
2018-05-18T10:25:58.478Z,42.10
2018-05-18T10:28:01.716Z,41.80
2018-05-18T10:30:05.693Z,41.60
2018-05-18T10:32:08.883Z,41.50
2018-05-18T10:34:12.186Z,41.40
2018-05-18T10:36:16.012Z,41.40
2018-05-18T10:38:19.192Z,41.80
2018-05-18T10:40:23.170Z,41.60
2018-05-18T10:42:26.358Z,41.40
2018-05-18T10:44:30.206Z,41.00
2018-05-18T10:46:34.388Z,40.90
2018-05-18T10:48:39.373Z,40.40
2018-05-18T10:50:43.842Z,40.30
2018-05-18T10:52:47.236Z,41.00
2018-05-18T10:54:50.453Z,41.20
2018-05-18T10:56:53.675Z,41.10
2018-05-18T10:58:56.863Z,41.50
2018-05-18T11:01:00.069Z,42.00
2018-05-18T11:03:03.250Z,40.90
2018-05-18T11:05:06.465Z,40.00
2018-05-18T11:07:09.685Z,39.40
2018-05-18T11:09:12.897Z,39.70
2018-05-18T11:11:18.299Z,39.60
2018-05-18T11:13:23.068Z,39.20
2018-05-18T11:15:26.310Z,39.00
2018-05-18T11:17:29.502Z,39.00
2018-05-18T11:19:32.685Z,38.80
2018-05-18T11:21:36.666Z,38.30
2018-05-18T11:23:39.848Z,38.10
2018-05-18T11:25:43.066Z,38.60
2018-05-18T11:27:46.277Z,39.40
2018-05-18T11:29:49.486Z,39.00
2018-05-18T11:31:52.695Z,38.50
2018-05-18T11:33:55.881Z,38.40
2018-05-18T11:35:59.845Z,38.30
2018-05-18T11:38:03.112Z,38.20
2018-05-18T11:40:06.346Z,38.50
2018-05-18T11:42:10.948Z,37.70
2018-05-18T11:44:15.062Z,37.90
2018-05-18T11:46:18.384Z,37.90
2018-05-18T11:48:23.065Z,37.30
2018-05-18T11:50:26.274Z,37.10
2018-05-18T11:52:29.446Z,36.80
2018-05-18T11:54:32.672Z,37.00
2018-05-18T11:56:36.615Z,37.00
2018-05-18T11:58:39.785Z,37.00
2018-05-18T12:00:42.987Z,36.90
2018-05-18T12:02:46.180Z,36.60
2018-05-18T12:04:49.389Z,36.50
2018-05-18T12:06:52.599Z,37.00
2018-05-18T12:08:55.787Z,37.00
2018-05-18T12:10:59.009Z,37.00
2018-05-18T12:13:02.190Z,36.80
2018-05-18T12:15:05.440Z,36.80
2018-05-18T12:17:08.650Z,36.50
2018-05-18T12:19:11.836Z,36.90
2018-05-18T12:21:15.055Z,37.10
2018-05-18T12:23:18.269Z,36.60
2018-05-18T12:25:21.459Z,36.60
2018-05-18T12:27:25.963Z,36.50
2018-05-18T12:29:29.179Z,36.30
2018-05-18T12:31:32.450Z,35.40
2018-05-18T12:33:35.693Z,35.40
2018-05-18T12:35:39.643Z,35.90
2018-05-18T12:37:42.846Z,35.80
2018-05-18T12:39:46.153Z,35.60
2018-05-18T12:41:49.369Z,35.40
2018-05-18T12:43:52.552Z,35.30
2018-05-18T12:45:56.501Z,35.10
2018-05-18T12:48:00.000Z,35.00
2018-05-18T12:50:04.054Z,34.60
2018-05-18T12:52:07.386Z,35.10
2018-05-18T12:54:10.668Z,34.00
2018-05-18T12:56:13.861Z,33.60
2018-05-18T12:58:19.216Z,33.90
2018-05-18T13:00:22.588Z,33.80
2018-05-18T13:02:25.943Z,33.60
2018-05-18T13:04:31.015Z,33.40
2018-05-18T13:06:34.231Z,33.40
2018-05-18T13:08:37.428Z,33.50
2018-05-18T13:10:41.746Z,34.20
2018-05-18T13:12:46.054Z,33.90
2018-05-18T13:14:50.436Z,33.20
2018-05-18T13:16:53.659Z,33.30
2018-05-18T13:18:56.876Z,33.30
2018-05-18T13:21:00.092Z,32.80
2018-05-18T13:23:03.315Z,32.80
2018-05-18T13:25:06.656Z,32.60
2018-05-18T13:27:10.723Z,33.20
2018-05-18T13:29:13.939Z,32.20
2018-05-18T13:31:17.127Z,32.50
2018-05-18T13:33:20.346Z,32.20
2018-05-18T13:35:23.535Z,32.20
2018-05-18T13:37:26.739Z,32.20
2018-05-18T13:39:30.690Z,32.60
2018-05-18T13:41:33.884Z,32.60
2018-05-18T13:43:37.098Z,33.00
2018-05-18T13:45:40.275Z,32.70
2018-05-18T13:47:44.260Z,32.30
2018-05-18T13:49:47.445Z,32.20
2018-05-18T13:51:50.950Z,32.00
2018-05-18T13:53:54.199Z,31.40
2018-05-18T13:55:57.390Z,31.30
2018-05-18T13:58:00.796Z,31.60
2018-05-18T14:00:04.026Z,31.60
2018-05-18T14:02:07.236Z,31.40
2018-05-18T14:04:11.458Z,31.70
2018-05-18T14:06:14.736Z,31.10
2018-05-18T14:08:18.719Z,30.70
2018-05-18T14:10:21.897Z,30.60
2018-05-18T14:12:26.019Z,30.40
2018-05-18T14:14:29.199Z,30.20
2018-05-18T14:16:33.645Z,30.30
2018-05-18T14:18:37.610Z,31.10
2018-05-18T14:20:40.789Z,31.00
2018-05-18T14:22:44.501Z,31.60
2018-05-18T14:24:48.481Z,31.90
2018-05-18T14:26:53.313Z,31.80
2018-05-18T14:28:57.505Z,31.60
2018-05-18T14:31:01.483Z,31.70
2018-05-18T14:33:04.709Z,31.60
2018-05-18T14:35:09.992Z,31.90
2018-05-18T14:37:13.231Z,32.40
2018-05-18T14:39:16.406Z,32.80
2018-05-18T14:41:20.383Z,31.80
2018-05-18T14:43:23.620Z,31.80
2018-05-18T14:45:26.803Z,31.60
2018-05-18T14:47:29.979Z,31.70
2018-05-18T14:49:33.189Z,31.50
2018-05-18T14:51:36.397Z,31.80
2018-05-18T14:53:39.598Z,31.80
2018-05-18T14:55:43.569Z,31.20
2018-05-18T14:57:47.481Z,31.10
2018-05-18T14:59:50.679Z,32.00
2018-05-18T15:01:53.877Z,31.70
2018-05-18T15:03:57.078Z,32.00
2018-05-18T15:06:00.292Z,31.00
2018-05-18T15:08:03.477Z,31.60
2018-05-18T15:10:08.386Z,31.60
2018-05-18T15:12:11.592Z,31.40
2018-05-18T15:14:14.797Z,31.30
2018-05-18T15:16:18.058Z,31.40
2018-05-18T15:18:21.213Z,31.60
2018-05-18T15:20:24.428Z,31.50
2018-05-18T15:22:27.611Z,32.00
2018-05-18T15:24:30.826Z,32.10
2018-05-18T15:26:34.048Z,31.90
2018-05-18T15:28:37.612Z,32.00
2018-05-18T15:30:40.785Z,32.70
2018-05-18T15:32:43.970Z,32.60
2018-05-18T15:34:47.178Z,31.80
2018-05-18T15:36:50.361Z,31.90
2018-05-18T15:38:54.333Z,32.10
2018-05-18T15:40:57.514Z,32.00
2018-05-18T15:43:00.694Z,31.90
2018-05-18T15:45:04.676Z,31.60
2018-05-18T15:47:07.850Z,31.60
2018-05-18T15:49:11.178Z,31.90
2018-05-18T15:51:14.415Z,32.20
2018-05-18T15:53:17.602Z,32.20
2018-05-18T15:55:20.802Z,32.50
2018-05-18T15:57:24.315Z,32.20
2018-05-18T15:59:27.693Z,32.10
2018-05-18T16:01:30.912Z,31.70
2018-05-18T16:03:34.892Z,32.10
2018-05-18T16:05:38.103Z,32.00
2018-05-18T16:07:41.379Z,32.60
2018-05-18T16:09:44.597Z,32.80
2018-05-18T16:11:47.796Z,32.40
2018-05-18T16:13:51.193Z,32.90
2018-05-18T16:15:56.166Z,32.30
2018-05-18T16:17:59.374Z,32.10
2018-05-18T16:20:02.585Z,33.30
2018-05-18T16:22:05.783Z,33.40
2018-05-18T16:24:09.035Z,33.30
2018-05-18T16:26:14.032Z,32.70
2018-05-18T16:28:18.034Z,33.30
2018-05-18T16:30:21.207Z,33.30
2018-05-18T16:32:24.414Z,33.60
2018-05-18T16:34:27.621Z,33.60
2018-05-18T16:36:30.839Z,33.50
2018-05-18T16:38:34.020Z,33.20
2018-05-18T16:40:37.242Z,33.40
2018-05-18T16:42:40.427Z,33.40
2018-05-18T16:44:43.647Z,33.80
2018-05-18T16:46:46.863Z,34.50
2018-05-18T16:48:50.050Z,34.00
2018-05-18T16:50:53.256Z,34.10
2018-05-18T16:52:57.231Z,35.50
2018-05-18T16:55:00.444Z,35.50
2018-05-18T16:57:03.712Z,35.90
2018-05-18T16:59:07.057Z,35.50
2018-05-18T17:01:11.115Z,37.10
2018-05-18T17:03:14.290Z,36.40
2018-05-18T17:05:17.501Z,36.20
2018-05-18T17:07:21.702Z,36.40
2018-05-18T17:09:25.782Z,37.00
2018-05-18T17:11:28.990Z,36.90
2018-05-18T17:13:32.316Z,37.30
2018-05-18T17:15:36.344Z,37.30
2018-05-18T17:17:39.526Z,37.20
2018-05-18T17:19:42.741Z,37.30
2018-05-18T17:21:45.958Z,37.80
2018-05-18T17:23:49.157Z,37.80
2018-05-18T17:25:53.037Z,38.30
2018-05-18T17:27:58.384Z,38.30
2018-05-18T17:30:02.705Z,38.30
2018-05-18T17:32:06.610Z,39.10
2018-05-18T17:34:09.827Z,39.00
2018-05-18T17:36:13.057Z,39.10
2018-05-18T17:38:16.579Z,39.80
2018-05-18T17:40:20.587Z,39.30
2018-05-18T17:42:23.974Z,39.20
2018-05-18T17:44:27.131Z,39.40
2018-05-18T17:46:31.098Z,38.90
2018-05-18T17:48:34.286Z,38.90
2018-05-18T17:50:37.490Z,39.50
2018-05-18T17:52:40.694Z,39.50
2018-05-18T17:54:43.882Z,40.10
2018-05-18T17:56:47.854Z,39.50
2018-05-18T17:58:51.039Z,39.50
2018-05-18T18:00:54.253Z,39.50
2018-05-18T18:02:57.465Z,39.50
2018-05-18T18:05:02.495Z,39.90
2018-05-18T18:07:06.477Z,40.70
2018-05-18T18:09:09.673Z,40.70
2018-05-18T18:11:12.887Z,40.70
2018-05-18T18:13:17.029Z,41.00
2018-05-18T18:15:20.213Z,40.70
2018-05-18T18:17:23.420Z,41.50
2018-05-18T18:19:27.263Z,41.70
2018-05-18T18:21:31.018Z,41.80
2018-05-18T18:23:35.372Z,41.90
2018-05-18T18:25:40.272Z,41.80
2018-05-18T18:27:44.858Z,42.30
2018-05-18T18:29:49.500Z,42.70
2018-05-18T18:31:54.821Z,43.00
2018-05-18T18:33:58.022Z,43.00
2018-05-18T18:36:01.256Z,43.00
2018-05-18T18:38:05.630Z,43.20
2018-05-18T18:40:08.864Z,43.40
2018-05-18T18:42:12.070Z,43.50
2018-05-18T18:44:15.250Z,43.70
2018-05-18T18:46:18.472Z,43.80
2018-05-18T18:48:21.691Z,43.80
2018-05-18T18:50:25.044Z,43.90
2018-05-18T18:52:28.248Z,44.80
2018-05-18T18:54:31.513Z,44.30
2018-05-18T18:56:34.725Z,44.60
2018-05-18T18:58:37.988Z,44.80
2018-05-18T19:00:42.041Z,45.00
2018-05-18T19:02:46.011Z,44.90
2018-05-18T19:04:49.190Z,45.00
2018-05-18T19:09:37.835Z,45.20
2018-05-18T19:11:41.033Z,45.20
2018-05-18T19:13:44.211Z,45.40
2018-05-18T19:15:47.383Z,45.50
2018-05-18T19:17:50.565Z,46.20
2018-05-18T19:19:53.712Z,45.50
2018-05-18T19:21:56.896Z,45.80
2018-05-18T19:24:00.101Z,46.80
2018-05-18T19:26:04.179Z,46.10
2018-05-18T19:28:08.489Z,46.00
2018-05-18T19:30:12.798Z,46.00
2018-05-18T19:32:16.138Z,46.00
2018-05-18T19:34:19.299Z,46.00
2018-05-18T19:36:22.722Z,46.00
2018-05-18T19:38:25.900Z,46.40
2018-05-18T19:40:29.946Z,46.80
2018-05-18T19:42:33.143Z,46.70
2018-05-18T19:44:38.241Z,47.00
2018-05-18T19:46:41.456Z,47.00
2018-05-18T19:48:44.632Z,47.20
2018-05-18T19:50:47.791Z,47.10
2018-05-18T19:52:50.997Z,47.20
2018-05-18T19:54:54.348Z,47.30
2018-05-18T19:56:57.890Z,47.40
2018-05-18T19:59:01.275Z,47.50
2018-05-18T20:01:04.507Z,47.50
2018-05-18T20:03:07.686Z,47.60
2018-05-18T20:05:11.617Z,47.80
2018-05-18T20:07:15.567Z,47.80
2018-05-18T20:09:18.741Z,47.80
2018-05-18T20:11:22.671Z,48.20
2018-05-18T20:13:26.909Z,48.40
2018-05-18T20:15:30.829Z,48.30
2018-05-18T20:17:34.788Z,48.40
2018-05-18T20:19:38.868Z,48.30
2018-05-18T20:21:42.022Z,48.30
2018-05-18T20:23:45.187Z,48.30
2018-05-18T20:25:48.385Z,48.30
2018-05-18T20:27:51.573Z,48.50
2018-05-18T20:29:55.428Z,48.60
2018-05-18T20:31:58.787Z,48.80
2018-05-18T20:34:01.945Z,48.90
2018-05-18T20:36:05.105Z,49.30
2018-05-18T20:38:08.351Z,49.20
2018-05-18T20:40:11.514Z,49.30
2018-05-18T20:42:14.787Z,49.40
2018-05-18T20:44:19.242Z,49.50
2018-05-18T20:46:23.407Z,49.50
2018-05-18T20:48:27.196Z,49.40
2018-05-18T20:50:31.659Z,49.70
2018-05-18T20:52:37.020Z,49.90
2018-05-18T20:54:41.839Z,50.00
2018-05-18T20:56:46.192Z,50.00
2018-05-18T20:58:51.122Z,50.20
2018-05-18T21:00:56.122Z,50.40
2018-05-18T21:03:01.119Z,50.50
2018-05-18T21:05:05.456Z,50.50
2018-05-18T21:07:09.380Z,50.40
2018-05-18T21:09:13.918Z,50.20
2018-05-18T21:11:19.145Z,50.50
2018-05-18T21:13:24.476Z,50.70
2018-05-18T21:15:28.870Z,50.70
2018-05-18T21:17:33.463Z,50.70
2018-05-18T21:19:39.851Z,50.90
2018-05-18T21:21:43.813Z,50.90
2018-05-18T21:23:48.352Z,50.90
2018-05-18T21:25:52.918Z,51.10
2018-05-18T21:27:57.957Z,51.10
2018-05-18T21:30:02.285Z,51.20
2018-05-18T21:32:06.652Z,51.30
2018-05-18T21:34:11.287Z,51.30
2018-05-18T21:36:15.548Z,51.30
2018-05-18T21:38:19.872Z,51.30
2018-05-18T21:40:25.411Z,51.40
2018-05-18T21:42:29.664Z,51.50
2018-05-18T21:44:34.207Z,51.50
2018-05-18T21:46:39.649Z,51.50
2018-05-18T21:48:44.872Z,51.80
2018-05-18T21:50:50.188Z,51.70
2018-05-18T21:52:54.667Z,51.90
2018-05-18T21:55:00.111Z,52.50
2018-05-18T21:57:04.273Z,52.00
2018-05-18T21:59:08.389Z,52.00
2018-05-18T22:01:13.628Z,52.00
2018-05-18T22:03:18.250Z,51.90
2018-05-18T22:05:23.457Z,52.10
2018-05-18T22:07:26.768Z,52.00
2018-05-18T22:09:30.483Z,52.10
2018-05-18T22:11:33.695Z,52.20
2018-05-18T22:13:36.889Z,52.20
2018-05-18T22:15:40.815Z,52.30
2018-05-18T22:17:44.746Z,52.40
2018-05-18T22:19:48.688Z,52.40
2018-05-18T22:21:52.824Z,52.40
2018-05-18T22:23:56.027Z,52.40
2018-05-18T22:25:59.252Z,52.40
2018-05-18T22:28:02.425Z,52.50
2018-05-18T22:30:06.416Z,52.60
2018-05-18T22:32:09.580Z,52.70
2018-05-18T22:34:12.763Z,52.60
2018-05-18T22:36:16.741Z,52.90
2018-05-18T22:38:19.910Z,52.90
2018-05-18T22:40:23.116Z,52.90
2018-05-18T22:42:27.050Z,52.90
2018-05-18T22:44:30.262Z,52.90
2018-05-18T22:46:33.452Z,52.90
2018-05-18T22:48:37.382Z,53.00
2018-05-18T22:50:41.337Z,52.90
2018-05-18T22:52:44.528Z,53.00
2018-05-18T22:54:47.710Z,52.80
2018-05-18T22:56:51.635Z,52.70
2018-05-18T22:58:55.615Z,53.30
2018-05-18T23:00:59.527Z,52.70
2018-05-18T23:03:02.726Z,52.10
2018-05-18T23:05:05.916Z,52.70
2018-05-18T23:07:09.848Z,52.70
2018-05-18T23:09:13.804Z,52.70
2018-05-18T23:11:16.967Z,52.80
2018-05-18T23:13:20.892Z,52.90
2018-05-18T23:15:24.899Z,52.90
2018-05-18T23:17:28.067Z,52.80
2018-05-18T23:19:31.273Z,53.70
2018-05-18T23:21:34.432Z,52.90
2018-05-18T23:23:38.377Z,53.10
2018-05-18T23:25:42.668Z,53.30
2018-05-18T23:27:47.759Z,53.30
2018-05-18T23:29:52.774Z,53.30
2018-05-18T23:31:56.104Z,53.30
2018-05-18T23:33:59.871Z,53.30
2018-05-18T23:36:03.113Z,52.90
2018-05-18T23:38:06.292Z,53.30
2018-05-18T23:40:09.487Z,53.40
2018-05-18T23:42:12.661Z,53.30
2018-05-18T23:44:15.828Z,53.20
2018-05-18T23:46:19.975Z,53.20
2018-05-18T23:48:23.136Z,53.80
2018-05-18T23:50:26.320Z,53.20
2018-05-18T23:52:30.251Z,53.30
2018-05-18T23:54:34.175Z,53.30
2018-05-18T23:56:38.115Z,53.50
2018-05-18T23:58:42.035Z,53.20
